ADDS TAF Board (Experimental) INFO

IDs: Format: Expanded Condensed

Updated at: 0032 UTC 19 Dec 2014

KDCA - Washington/National, VA, US

Issued at 2337 UTC 18 Dec 2014
Time2352Z19/01Z19/02Z19/03Z19/04Z19/05Z19/06Z19/07Z19/08Z19/09Z19/10Z19/11Z19/12Z19/13Z
TypeOBSPRVLPRVLPRVLPRVLPRVLPRVLPRVLPRVLPRVLPRVLPRVLPRVLPRVL
VIS10>6>6>6>6>6>6>6>6>6>6>6>6>6
CIG150150150150150150150150150150150150150150
CoverBKNBKNBKNBKNBKNBKNBKNBKNBKNBKNBKNBKNBKNBKN
FltCat--VFRVFRVFRVFRVFRVFRVFRVFRVFRVFRVFRVFRVFR
WX----------------------------
WDir320300300300300300300300300300300300300300
WSpd105555555555555
WGst----------------------------
R01/19
XWnd64444444444444
HWnd83333333333333
R04/22
XWnd95555555555555
HWnd40000000000000
R15/33
XWnd-1-2-2-2-2-2-2-2-2-2-2-2-2-2
HWnd-10-5-5-5-5-5-5-5-5-5-5-5-5-5
Raw TAF
KDCA 182337Z 1900/1924 30005KT P6SM SCT040 BKN150
  FM191600 29011G17KT P6SM SCT035


Raw METAR
KDCA 182352Z 32010KT 10SM BKN150 BKN250 04/M06 A3013 RMK AO2 SLP203 T00391056 10061 20039 53006

TAF Board Legend

Hazard VFR MVFR IFR LIFR
Visibility (sm) >5 3≤X≤5 1≤X<3 <1
Ceiling (100 ft) >30 10≤X≤30 5≤X<10 <5
Wind Speed (kt) <10 10≤X<20 20≤X<30 ≥30
Wind Gust (kt) <15 15≤X<25 25≤X<35 ≥35
Weather No Wx Reported VCTS,-TS,-FZRA TS,FZRA +TS,+FZRA


Page loaded:  00:32 UTC  |   04:32 PM Pacific  |   05:32 PM Mountain  |   06:32 PM Central  |   07:32 PM Eastern

 

ADVISORIES

FORECASTS

FORECASTS

OBSERVATIONS

USER TOOLS

ABOUT US